PORT of APPLEDORE

Land: United Kingdom Land: United Kingdom (GB)
Latitude / Longitude: 51.04873° / -4.191162° Toon op kaart Toon op kaart
Lokale Tijd:  UTC +1
UN/LOCODE: GBAPP

Recente Aankomst- en Vertrektijden


Scheepsnaam
Aankomst (UTC)
Aankomst (LT)
Vertrek (UTC)
Vertrek (LT)
Vessel Type: Sleepboot, Loods etc  ARCO DART 2014-09-13 19:17:00 2014-09-13 20:17:00 2014-09-13 21:49:00 2014-09-13 22:49:00
Vessel Type: Sleepboot, Loods etc  ARCO DART 2014-09-12 18:31:00 2014-09-12 19:31:00 2014-09-12 20:55:00 2014-09-12 21:55:00
Vessel Type: Sleepboot, Loods etc  ARCO DART 2014-09-09 16:26:00 2014-09-09 17:26:00 2014-09-09 19:05:00 2014-09-09 20:05:00
Vessel Type: Sleepboot, Loods etc  RNLI LIFEBOAT 16-16 2014-09-09 19:02:00 2014-09-09 20:02:00
Vessel Type: Vissersboot  HELEN JANE 2 2014-09-04 23:43:00 2014-09-05 00:43:00 2014-09-05 02:20:00 2014-09-05 03:20:00
Vessel Type: Jachten & Overige  KATHLEEN AND MAY 2014-08-30 19:06:00 2014-08-30 20:06:00 2014-08-30 19:20:00 2014-08-30 20:20:00
Vessel Type: Sleepboot, Loods etc  ARCO DART 2014-08-25 16:39:00 2014-08-25 17:39:00 2014-08-25 19:11:00 2014-08-25 20:11:00
Vessel Type: Jachten & Overige  KATHLEEN AND MAY 2014-08-23 14:40:00 2014-08-23 15:40:00 2014-08-23 14:57:00 2014-08-23 15:57:00
HELEN JANE 2 2014-08-21 00:55:00 2014-08-21 01:55:00 2014-08-21 02:47:00 2014-08-21 03:47:00
COUNTESS ANNA 2014-08-12 18:42:00 2014-08-12 19:42:00 2014-08-12 18:54:00 2014-08-12 19:54:00

Verwachte aankomsten


Scheepsnaam
Scheduled Arrival (UTC)
Geplande Aankomst (lokale tijd)
Geschatte Aankomsttijd (UTC)
Geschatte Aankomsttijd (Lokaal)
Geen gegevens gevonden

Wind Forecast


    
Tijd (UTC)
Snelheid
Direction
Temperature
2014-09-21 21:00:00 6 knots 31° 17°C
2014-09-22 00:00:00 4 knots 66° 17°C
2014-09-22 03:00:00 4 knots 135° 15°C
2014-09-22 06:00:00 6 knots 161° 14°C
2014-09-22 09:00:00 3 knots 181° 15°C
2014-09-22 12:00:00 2 knots 326° 16°C
2014-09-22 15:00:00 4 knots 339° 16°C
2014-09-22 18:00:00 4 knots 344° 16°C
2014-09-22 21:00:00 2 knots 314° 16°C
2014-09-23 00:00:00 3 knots 235° 16°C
2014-09-23 03:00:00 4 knots 220° 15°C
2014-09-23 06:00:00 6 knots 207° 14°C
2014-09-23 09:00:00 7 knots 240° 15°C
2014-09-23 12:00:00 8 knots 277° 16°C
2014-09-23 15:00:00 9 knots 292° 15°C
2014-09-23 18:00:00 9 knots 291° 15°C

NO_PHOTO

No Photos for this port. Be the first to upload one!